Time;durP1;ratioP1;P1;durP2;ratioP2;P2;SDS_P1;SDS_P2;PMS_P1;PMS_P2;Temp;Humidity;BMP_temperature;BMP_pressure;BME280_temperature;BME280_humidity;BME280_pressure;Samples;Min_cycle;Max_cycle;Signal;HPM_P1;HPM_P2
2022/09/28 00:02:56;;;;;;;37.92;8.63;;;;;;;0.50;68.11;97449.53;6102672;29;20471;-69
2022/09/28 00:06:07;;;;;;;39.33;9.40;;;;;;;0.53;67.06;97438.28;6102540;29;20051;-69
2022/09/28 00:09:08;;;;;;;30.55;8.05;;;;;;;0.45;67.27;97443.56;6102612;29;20510;-69
2022/09/28 00:12:10;;;;;;;34.60;8.23;;;;;;;0.36;67.30;97434.22;6102401;29;20122;-69
2022/09/28 00:15:11;;;;;;;31.85;8.38;;;;;;;0.33;66.96;97439.44;6102069;29;20052;-69
2022/09/28 00:18:16;;;;;;;36.40;7.93;;;;;;;0.31;67.16;97441.22;6101784;29;20055;-68
2022/09/28 00:21:21;;;;;;;25.25;7.70;;;;;;;0.30;67.29;97439.50;6101729;29;20499;-68
2022/09/28 00:24:23;;;;;;;24.00;7.38;;;;;;;0.30;67.27;97451.59;6101659;29;20377;-68
2022/09/28 00:27:24;;;;;;;29.02;7.32;;;;;;;0.29;67.19;97458.50;6115936;29;20234;-69
2022/09/28 00:30:25;;;;;;;24.10;6.72;;;;;;;0.32;67.39;97457.59;6101312;29;20058;-69
2022/09/28 00:33:27;;;;;;;23.27;6.22;;;;;;;0.32;67.25;97463.63;6101236;29;20048;-68
2022/09/28 00:36:32;;;;;;;19.60;7.30;;;;;;;0.33;66.75;97467.06;6101460;29;20043;-68
2022/09/28 00:39:34;;;;;;;28.98;8.02;;;;;;;0.38;67.13;97468.72;6101200;29;20036;-68
2022/09/28 00:42:41;;;;;;;25.83;8.38;;;;;;;0.34;67.27;97463.59;6101419;29;20441;-68
2022/09/28 00:46:02;;;;;;;18.98;7.47;;;;;;;0.35;67.57;97463.59;6101179;29;20052;-69
2022/09/28 00:49:11;;;;;;;20.05;7.40;;;;;;;0.18;67.14;97444.88;6100949;29;20048;-69
2022/09/28 00:52:22;;;;;;;29.33;8.13;;;;;;;0.26;67.69;97455.97;6099967;29;20047;-68
2022/09/28 00:55:44;;;;;;;21.15;7.78;;;;;;;0.27;67.48;97460.25;6100980;29;20519;-68
2022/09/28 00:58:50;;;;;;;25.98;8.95;;;;;;;0.31;68.10;97472.28;6099896;29;20060;-68
2022/09/28 01:01:52;;;;;;;21.08;8.45;;;;;;;0.32;67.47;97476.56;6100968;29;20055;-68
2022/09/28 01:04:55;;;;;;;20.02;8.00;;;;;;;0.24;67.91;97475.81;6100747;29;20226;-69
2022/09/28 01:07:57;;;;;;;23.42;7.50;;;;;;;0.14;68.14;97472.53;6099777;29;20399;-69
2022/09/28 01:11:04;;;;;;;16.75;7.60;;;;;;;0.15;68.77;97473.38;6100563;29;20052;-68
2022/09/28 01:14:10;;;;;;;24.24;9.04;;;;;;;0.19;68.73;97472.44;6047076;29;1437253;-69
2022/09/28 01:17:24;;;;;;;20.50;7.40;;;;;;;0.21;68.79;97470.69;6101550;29;20048;-67
2022/09/28 01:20:59;;;;;;;19.88;7.55;;;;;;;0.21;68.78;97475.88;6101464;29;20527;-69
2022/09/28 01:24:21;;;;;;;;;;;;;;;0.09;68.28;97481.22;6101846;29;20044;-69
2022/09/28 01:27:33;;;;;;;20.02;7.03;;;;;;;0.05;69.30;97476.97;6101148;29;19918;-68
2022/09/28 01:31:15;;;;;;;21.65;7.20;;;;;;;0.02;69.10;97475.25;6101585;29;20446;-69
2022/09/28 01:34:43;;;;;;;29.52;8.40;;;;;;;0.03;69.70;97481.28;6093534;29;20051;-69
2022/09/28 01:38:09;;;;;;;19.35;8.27;;;;;;;0.05;69.63;97480.38;6101347;29;20048;-69
2022/09/28 01:41:12;;;;;;;15.57;6.50;;;;;;;0.04;69.62;97470.94;6101015;29;20487;-69
2022/09/28 01:44:19;;;;;;;20.35;7.72;;;;;;;0.06;69.67;97478.66;6101437;29;20052;-69
2022/09/28 01:47:25;;;;;;;24.85;8.65;;;;;;;0.06;70.04;97466.59;6101355;29;20058;-68
2022/09/28 01:50:39;;;;;;;19.02;7.70;;;;;;;0.10;69.52;97470.00;6101271;29;20048;-69
2022/09/28 01:53:45;;;;;;;20.80;7.53;;;;;;;-0.01;69.84;97476.16;6101190;29;20052;-68
2022/09/28 01:57:17;;;;;;;19.48;8.73;;;;;;;0.04;69.99;97477.84;6101429;29;20084;-68
2022/09/28 02:00:25;;;;;;;13.45;7.13;;;;;;;0.06;69.83;97489.00;6101201;29;20044;-71
2022/09/28 02:03:38;;;;;;;17.40;7.93;;;;;;;0.05;70.15;97487.31;6101877;29;20044;-69
2022/09/28 02:06:53;;;;;;;17.85;7.45;;;;;;;0.05;70.17;97500.25;6101455;29;20162;-69
2022/09/28 02:10:14;;;;;;;17.58;8.63;;;;;;;0.08;70.28;97492.44;6100914;29;20120;-69
2022/09/28 02:13:38;;;;;;;16.33;8.98;;;;;;;0.07;70.50;97498.50;6100798;29;20052;-69
2022/09/28 02:16:47;;;;;;;24.23;12.77;;;;;;;0.12;70.57;97501.88;6100720;29;20056;-69
2022/09/28 02:19:52;;;;;;;22.10;11.48;;;;;;;0.13;70.23;97495.81;6101772;29;20059;-70
2022/09/28 02:22:55;;;;;;;18.02;9.00;;;;;;;0.12;69.84;97507.06;6103949;29;20051;-69
2022/09/28 02:26:07;;;;;;;15.98;9.05;;;;;;;0.18;70.69;97506.97;6104687;29;20474;-69
2022/09/28 02:29:09;;;;;;;16.05;9.30;;;;;;;0.22;70.60;97503.44;6104763;29;20048;-69
2022/09/28 02:32:13;;;;;;;15.15;10.05;;;;;;;0.28;70.53;97498.19;6104800;29;20044;-69
2022/09/28 02:35:21;;;;;;;13.77;8.98;;;;;;;0.26;69.79;97509.47;6104808;29;20537;-71
2022/09/28 02:38:25;;;;;;;14.13;8.90;;;;;;;0.18;70.19;97501.78;6104626;29;20048;-69
2022/09/28 02:41:47;;;;;;;21.55;12.40;;;;;;;0.19;70.31;97508.66;6104194;29;20150;-69
2022/09/28 02:45:35;;;;;;;16.70;10.02;;;;;;;0.24;70.23;97521.56;6104391;29;20336;-69
2022/09/28 02:49:05;;;;;;;15.25;9.60;;;;;;;0.18;70.55;97519.91;6101931;29;20044;-69
2022/09/28 02:52:26;;;;;;;12.48;7.57;;;;;;;0.16;70.42;97519.06;6104401;29;20498;-68
2022/09/28 02:55:36;;;;;;;10.93;7.80;;;;;;;0.13;70.69;97524.28;6104310;29;20187;-69
2022/09/28 02:58:43;;;;;;;12.00;7.80;;;;;;;0.21;70.19;97518.13;6104282;29;20359;-69
2022/09/28 03:02:22;;;;;;;12.43;7.95;;;;;;;0.27;70.59;97527.53;6104326;29;20103;-69
2022/09/28 03:05:51;;;;;;;13.73;8.13;;;;;;;0.21;70.35;97528.47;6104069;29;20058;-68
2022/09/28 03:08:55;;;;;;;14.93;9.57;;;;;;;0.26;69.89;97536.19;6103324;29;20067;-70
2022/09/28 03:12:03;;;;;;;9.45;7.05;;;;;;;0.24;70.10;97537.94;6103488;29;20088;-68
2022/09/28 03:15:09;;;;;;;10.00;6.93;;;;;;;0.26;70.49;97540.53;6103669;29;20536;-70
2022/09/28 03:18:10;;;;;;;10.15;7.05;;;;;;;0.23;70.27;97533.66;6103750;29;20548;-70
2022/09/28 03:21:15;;;;;;;9.23;7.00;;;;;;;0.26;70.42;97546.56;6103550;29;20044;-70
2022/09/28 03:24:16;;;;;;;;;;;;;;;0.30;70.21;97550.81;6104318;29;20056;-70
2022/09/28 03:27:17;;;;;;;10.60;5.70;;;;;;;0.32;70.50;97546.47;6103595;29;20014;-70
2022/09/28 03:30:21;;;;;;;8.40;5.43;;;;;;;0.33;70.19;97543.00;6103360;29;20052;-69
2022/09/28 03:33:25;;;;;;;11.02;6.50;;;;;;;0.32;70.06;97535.25;6102631;29;20047;-70
2022/09/28 03:36:26;;;;;;;8.77;6.38;;;;;;;0.43;70.11;97547.19;6103353;29;20411;-70
2022/09/28 03:39:28;;;;;;;9.93;6.93;;;;;;;0.40;70.06;97538.59;6103219;29;20052;-69
2022/09/28 03:42:29;;;;;;;11.02;6.90;;;;;;;0.54;70.61;97548.75;6103214;29;20131;-69
2022/09/28 03:45:33;;;;;;;9.00;5.90;;;;;;;0.65;69.78;97539.97;6101797;29;21092;-70
2022/09/28 03:48:40;;;;;;;11.10;6.60;;;;;;;0.75;69.76;97535.50;6103087;29;20074;-68
2022/09/28 03:51:45;;;;;;;11.52;7.55;;;;;;;0.79;69.58;97537.16;6103077;29;20044;-69
2022/09/28 03:54:47;;;;;;;8.55;5.90;;;;;;;0.92;69.65;97547.31;6103129;29;20087;-69
2022/09/28 03:57:56;;;;;;;11.07;6.40;;;;;;;0.94;68.98;97548.16;6102796;29;20040;-69
2022/09/28 04:01:03;;;;;;;12.88;6.47;;;;;;;0.95;68.88;97560.22;6102702;29;20052;-70
2022/09/28 04:04:12;;;;;;;8.80;5.85;;;;;;;0.86;69.16;97564.69;6102709;29;20206;-69
2022/09/28 04:07:17;;;;;;;9.98;6.30;;;;;;;0.87;69.05;97566.38;6102777;29;20052;-69
2022/09/28 04:10:18;;;;;;;10.23;5.82;;;;;;;0.93;69.14;97562.84;6101872;29;20557;-68
2022/09/28 04:13:22;;;;;;;6.13;5.18;;;;;;;1.00;69.43;97551.50;6102573;29;20048;-68
2022/09/28 04:16:24;;;;;;;;;;;;;;;1.15;69.03;97570.28;6102672;29;20547;-68
2022/09/28 04:19:25;;;;;;;10.18;5.60;;;;;;;1.21;68.32;97559.81;6102674;29;19923;-69
2022/09/28 04:22:30;;;;;;;9.18;5.55;;;;;;;1.09;68.92;97568.66;6100887;29;20055;-69
2022/09/28 04:25:35;;;;;;;7.00;5.05;;;;;;;1.17;69.28;97577.16;6102011;29;20044;-69
2022/09/28 04:32:00;;;;;;;6.55;5.20;;;;;;;1.37;68.62;97581.16;6102114;29;20054;-68
2022/09/28 04:35:04;;;;;;;6.80;5.15;;;;;;;1.47;69.06;97578.38;6102082;29;20056;-69
2022/09/28 04:38:07;;;;;;;9.57;5.25;;;;;;;1.50;68.21;97582.63;6102112;29;20395;-69
2022/09/28 04:41:09;;;;;;;6.35;5.07;;;;;;;1.52;68.20;97578.28;6101979;29;20167;-69
2022/09/28 04:44:12;;;;;;;6.60;4.80;;;;;;;1.64;68.06;97583.25;6101757;29;20051;-69
2022/09/28 04:47:14;;;;;;;6.47;4.80;;;;;;;1.75;67.61;97583.91;6101746;29;20426;-69
2022/09/28 04:50:15;;;;;;;6.03;4.60;;;;;;;1.76;67.79;97588.22;6101840;29;20056;-69
2022/09/28 04:53:17;;;;;;;5.53;4.90;;;;;;;1.68;67.36;97587.50;6101199;29;20048;-69
2022/09/28 04:56:21;;;;;;;6.85;5.68;;;;;;;1.66;67.41;97589.28;6101554;29;20048;-69
2022/09/28 04:59:27;;;;;;;7.35;4.78;;;;;;;1.67;68.02;97585.81;6101613;29;20533;-69
2022/09/28 05:02:28;;;;;;;;;;;;;;;1.78;67.19;97593.38;6102245;29;20559;-69
2022/09/28 05:05:29;;;;;;;6.55;4.93;;;;;;;1.69;66.98;97589.22;6101515;29;20293;-69
2022/09/28 05:08:34;;;;;;;6.00;5.05;;;;;;;1.63;67.41;97588.47;6101579;29;20044;-69
2022/09/28 05:11:36;;;;;;;5.43;4.63;;;;;;;1.65;67.52;97584.97;6101612;29;20044;-69
2022/09/28 05:14:40;;;;;;;6.10;4.75;;;;;;;1.79;67.73;97595.97;6101477;29;20542;-69
2022/09/28 05:17:41;;;;;;;6.30;5.07;;;;;;;1.86;67.62;97585.47;6101155;29;20454;-69
2022/09/28 05:20:45;;;;;;;10.20;5.53;;;;;;;1.89;67.06;97590.59;6101459;29;20383;-69
2022/09/28 05:23:49;;;;;;;6.30;5.25;;;;;;;1.82;67.56;97589.00;6101568;29;20048;-69
2022/09/28 05:26:55;;;;;;;6.80;5.05;;;;;;;1.85;67.36;97589.78;6101615;29;20063;-69
2022/09/28 05:29:56;;;;;;;;;;;;;;;1.93;67.19;97587.06;6101297;29;20527;-69
2022/09/28 05:33:03;;;;;;;6.75;4.78;;;;;;;1.90;67.38;97587.97;6101424;29;19927;-69
2022/09/28 05:36:08;;;;;;;6.97;4.70;;;;;;;1.92;66.57;97590.53;6100922;29;20060;-68
2022/09/28 05:39:09;;;;;;;6.28;4.90;;;;;;;1.67;66.42;97585.81;6101741;29;20067;-68
2022/09/28 05:42:11;;;;;;;4.93;3.95;;;;;;;1.56;66.82;97587.75;6101151;29;20099;-69
2022/09/28 05:45:16;;;;;;;7.35;5.18;;;;;;;1.55;66.87;97584.25;6101241;29;20463;-68
2022/09/28 05:48:17;;;;;;;6.35;4.68;;;;;;;1.48;67.60;97597.38;6100463;29;20534;-69
2022/09/28 05:51:19;;;;;;;5.93;4.30;;;;;;;1.64;66.95;97590.19;6100870;29;20052;-69
2022/09/28 05:54:23;;;;;;;7.28;5.32;;;;;;;1.37;67.76;97587.19;6101694;29;20056;-69
2022/09/28 05:57:25;;;;;;;6.13;4.53;;;;;;;1.46;68.05;97591.38;6105474;29;20422;-69
2022/09/28 06:00:27;;;;;;;6.20;4.65;;;;;;;1.51;67.99;97594.75;6105376;29;20048;-69
2022/09/28 06:03:29;;;;;;;4.28;3.72;;;;;;;1.65;68.19;97597.09;6105740;29;20206;-69
2022/09/28 06:06:31;;;;;;;4.97;2.97;;;;;;;1.71;67.79;97595.22;6105144;29;20052;-68
2022/09/28 06:09:32;;;;;;;7.10;3.97;;;;;;;1.66;67.45;97594.47;6105312;29;20048;-69
2022/09/28 06:12:34;;;;;;;5.05;4.10;;;;;;;1.68;67.97;97595.28;6105179;29;20115;-69
2022/09/28 06:15:36;;;;;;;6.38;3.97;;;;;;;1.88;67.33;97594.06;6104891;29;20048;-69
2022/09/28 06:18:37;;;;;;;6.60;4.05;;;;;;;1.82;67.11;97595.03;6105187;29;20052;-69
2022/09/28 06:21:46;;;;;;;4.72;4.07;;;;;;;1.80;67.75;97589.88;6105008;29;20044;-69
2022/09/28 06:24:47;;;;;;;4.63;3.60;;;;;;;2.01;67.29;97598.16;6104777;29;20067;-70
2022/09/28 06:27:55;;;;;;;5.13;4.03;;;;;;;2.11;67.03;97591.88;6105158;29;20063;-69
2022/09/28 06:30:59;;;;;;;3.88;3.47;;;;;;;2.13;67.12;97589.28;6104582;29;20119;-69
2022/09/28 06:34:05;;;;;;;3.97;3.30;;;;;;;2.00;67.13;97562.69;6104998;29;20051;-68
2022/09/28 06:37:10;;;;;;;4.30;3.90;;;;;;;2.25;67.44;97589.88;6104946;29;20059;-70
2022/09/28 06:40:17;;;;;;;4.25;3.67;;;;;;;2.34;67.01;97582.78;6104807;29;20139;-69
2022/09/28 06:43:21;;;;;;;4.05;3.50;;;;;;;2.44;66.84;97594.69;6104348;29;20184;-69
2022/09/28 06:46:23;;;;;;;4.53;2.97;;;;;;;2.45;67.04;97592.06;6104327;29;20075;-69
2022/09/28 06:49:29;;;;;;;3.10;2.80;;;;;;;2.57;66.59;97596.13;6104862;29;20123;-69
2022/09/28 06:52:32;;;;;;;3.58;2.55;;;;;;;2.58;66.81;97587.47;6103591;29;20048;-69
2022/09/28 06:55:47;;;;;;;3.47;2.92;;;;;;;2.54;67.13;97591.00;6104503;29;20048;-68
2022/09/28 06:58:52;;;;;;;3.13;2.83;;;;;;;2.73;66.80;97585.41;6104382;29;20039;-68
2022/09/28 07:01:55;;;;;;;2.80;2.30;;;;;;;3.00;66.85;97574.41;6104165;29;20036;-68
2022/09/28 07:04:57;;;;;;;3.53;2.45;;;;;;;3.31;66.40;97586.63;6103996;29;20048;-69
2022/09/28 07:08:00;;;;;;;1.95;1.73;;;;;;;3.69;65.82;97590.03;6103901;29;20048;-67
2022/09/28 07:11:06;;;;;;;2.28;2.08;;;;;;;3.94;65.04;97591.09;6104442;29;20052;-68
2022/09/28 07:14:11;;;;;;;2.28;2.08;;;;;;;4.17;64.05;97587.00;6103746;29;20060;-70
2022/09/28 07:17:12;;;;;;;2.10;1.90;;;;;;;4.43;61.18;97584.50;6103854;29;20055;-68
2022/09/28 07:20:16;;;;;;;2.08;1.48;;;;;;;4.30;62.01;97585.75;6103550;29;20059;-69
2022/09/28 07:23:18;;;;;;;1.58;1.48;;;;;;;4.31;62.35;97587.47;6103472;29;20056;-68
2022/09/28 07:26:22;;;;;;;2.08;1.42;;;;;;;4.33;60.66;97593.50;6103697;29;20138;-67
2022/09/28 07:29:28;;;;;;;1.80;1.70;;;;;;;4.10;62.24;97585.47;6103415;29;20582;-69
2022/09/28 07:32:31;;;;;;;1.58;1.48;;;;;;;4.22;62.45;97586.00;6103060;29;20052;-68
2022/09/28 07:35:33;;;;;;;1.70;1.60;;;;;;;4.37;62.28;97589.91;6103320;29;20035;-69
2022/09/28 07:38:40;;;;;;;1.38;1.27;;;;;;;4.63;61.42;97591.75;6103251;29;20044;-68
2022/09/28 07:41:44;;;;;;;1.40;1.30;;;;;;;4.95;59.19;97588.19;6103168;29;20040;-68
2022/09/28 07:44:45;;;;;;;1.52;1.20;;;;;;;5.03;58.47;97589.69;6102932;29;20087;-69
2022/09/28 07:47:54;;;;;;;1.40;1.30;;;;;;;5.05;57.41;97585.28;6103004;29;20044;-69
2022/09/28 07:50:56;;;;;;;1.38;1.10;;;;;;;4.77;59.46;97580.91;6103127;29;20052;-69
2022/09/28 07:53:58;;;;;;;1.60;1.30;;;;;;;4.78;59.20;97579.16;6103078;29;20040;-69
2022/09/28 07:57:01;;;;;;;1.23;1.13;;;;;;;4.50;60.26;97583.44;6102043;29;20083;-68
2022/09/28 08:00:06;;;;;;;1.20;1.10;;;;;;;4.46;60.57;97589.63;6102363;29;20051;-68
2022/09/28 08:03:08;;;;;;;0.90;0.80;;;;;;;4.64;60.30;97582.16;6102681;29;20052;-67
2022/09/28 08:06:11;;;;;;;1.33;1.23;;;;;;;5.05;58.96;97587.88;6102679;29;20047;-68
2022/09/28 08:09:15;;;;;;;1.27;1.15;;;;;;;5.25;58.40;97584.63;6102484;29;20135;-69
2022/09/28 08:12:18;;;;;;;2.83;1.45;;;;;;;5.13;58.53;97585.88;6101803;29;20183;-70
2022/09/28 08:15:22;;;;;;;1.07;1.03;;;;;;;5.19;58.85;97585.69;6102024;29;20052;-68
2022/09/28 08:18:24;;;;;;;1.05;1.00;;;;;;;5.15;58.64;97577.13;6101749;29;20055;-68
2022/09/28 08:21:46;;;;;;;3.95;2.10;;;;;;;5.25;58.94;97575.06;6101849;29;20044;-68
2022/09/28 08:24:50;;;;;;;7.30;4.72;;;;;;;5.51;58.60;97583.78;6102143;29;20491;-70
2022/09/28 08:27:56;;;;;;;6.78;5.05;;;;;;;5.74;57.34;97583.84;6101635;29;20088;-67
2022/09/28 08:31:06;;;;;;;4.03;2.55;;;;;;;5.84;57.25;97587.03;6101799;29;20048;-69
2022/09/28 08:34:07;;;;;;;4.40;1.85;;;;;;;5.85;56.04;97586.94;6101595;29;20455;-70
2022/09/28 08:37:09;;;;;;;1.35;1.10;;;;;;;5.54;56.52;97586.28;6102243;29;20052;-69
2022/09/28 08:40:18;;;;;;;1.23;0.90;;;;;;;5.15;58.20;97579.72;6101958;29;20176;-68
2022/09/28 08:43:45;;;;;;;2.50;1.10;;;;;;;5.04;57.88;97580.94;6103007;29;20056;-68
2022/09/28 08:46:55;;;;;;;1.20;1.10;;;;;;;5.29;57.73;97576.66;6103097;29;20056;-68
2022/09/28 08:49:59;;;;;;;1.08;0.93;;;;;;;5.36;57.59;97583.38;6101011;29;20064;-70
2022/09/28 08:53:25;;;;;;;3.03;2.22;;;;;;;5.09;58.00;97579.03;6101367;29;20058;-68
2022/09/28 08:56:36;;;;;;;2.00;1.40;;;;;;;4.98;57.94;97568.94;6101552;29;20056;-68
2022/09/28 08:59:56;;;;;;;1.25;1.10;;;;;;;4.84;59.03;97573.72;6101854;29;20527;-69
2022/09/28 09:02:57;;;;;;;1.83;1.40;;;;;;;4.81;58.73;97585.16;6101491;29;20052;-68
2022/09/28 09:06:37;;;;;;;2.72;1.25;;;;;;;4.71;59.88;97594.97;6101255;29;20077;-70
2022/09/28 09:09:45;;;;;;;2.95;1.27;;;;;;;4.57;59.08;97596.28;6093873;29;20052;-69
2022/09/28 09:13:02;;;;;;;1.30;0.85;;;;;;;4.63;59.52;97585.69;6101766;29;20052;-68
2022/09/28 09:16:35;;;;;;;1.10;1.00;;;;;;;4.56;59.84;97599.78;6101604;29;20048;-69
2022/09/28 09:19:53;;;;;;;8.38;4.97;;;;;;;4.63;59.27;97602.16;6101429;29;20188;-69
2022/09/28 09:23:10;;;;;;;1.90;1.40;;;;;;;4.53;58.97;97597.25;6101620;29;20052;-69
2022/09/28 09:26:20;;;;;;;1.02;1.00;;;;;;;4.31;60.30;97589.22;6101602;29;20048;-69
2022/09/28 09:29:39;;;;;;;1.05;0.80;;;;;;;4.16;60.73;97591.38;6101871;29;20048;-69
2022/09/28 09:32:58;;;;;;;0.75;0.63;;;;;;;4.18;60.84;97586.09;6106350;29;20052;-70
2022/09/28 09:36:38;;;;;;;1.20;0.77;;;;;;;4.46;60.46;97594.84;6106011;29;20064;-70
2022/09/28 09:39:50;;;;;;;1.15;0.85;;;;;;;4.34;60.66;97582.19;6105040;29;20044;-70
2022/09/28 09:43:28;;;;;;;0.80;0.80;;;;;;;4.46;60.27;97578.34;6106224;29;20056;-68
2022/09/28 09:46:36;;;;;;;0.68;0.68;;;;;;;4.58;59.86;97577.13;6105936;29;20048;-69
2022/09/28 09:50:01;;;;;;;1.05;0.95;;;;;;;4.71;59.38;97573.28;6105888;29;20414;-68
2022/09/28 09:53:17;;;;;;;0.70;0.70;;;;;;;4.81;59.15;97577.31;6105726;29;20518;-69
2022/09/28 09:56:33;;;;;;;2.47;1.83;;;;;;;4.73;59.32;97587.97;6105735;29;20040;-69
2022/09/28 09:59:41;;;;;;;1.50;0.60;;;;;;;4.68;59.37;97583.78;6105537;29;20048;-70
2022/09/28 10:02:47;;;;;;;1.92;1.23;;;;;;;4.33;60.60;97582.22;6105536;29;20542;-69
2022/09/28 10:06:00;;;;;;;;;;;;;;;4.53;60.83;97585.13;6105723;29;20055;-69
2022/09/28 10:09:26;;;;;;;1.45;1.08;;;;;;;4.62;60.25;97589.19;6105261;29;19931;-70
2022/09/28 10:12:30;;;;;;;1.30;0.90;;;;;;;4.47;59.87;97591.34;6105355;29;20571;-69
2022/09/28 10:15:39;;;;;;;0.68;0.68;;;;;;;4.22;60.65;97592.94;6105085;29;20421;-69
2022/09/28 10:18:43;;;;;;;0.90;0.75;;;;;;;3.93;61.67;97591.97;6104694;29;20052;-69
2022/09/28 10:21:51;;;;;;;0.68;0.65;;;;;;;3.88;61.85;97588.66;6104859;29;20055;-69
2022/09/28 10:24:56;;;;;;;1.95;0.95;;;;;;;3.68;62.81;97598.72;6105034;29;20050;-69
2022/09/28 10:28:01;;;;;;;2.83;0.80;;;;;;;3.59;62.54;97590.28;6105206;29;20056;-69
2022/09/28 10:31:37;;;;;;;1.20;0.85;;;;;;;3.50;63.10;97580.09;6119160;29;20507;-70
2022/09/28 10:34:40;;;;;;;0.70;0.60;;;;;;;3.47;63.37;97585.38;6096515;29;20131;-69
2022/09/28 10:38:05;;;;;;;5.60;3.10;;;;;;;3.49;63.27;97583.59;6104962;29;20067;-68
2022/09/28 10:41:12;;;;;;;5.20;3.05;;;;;;;3.47;63.47;97585.38;6104191;29;20107;-68
2022/09/28 10:44:17;;;;;;;1.73;0.95;;;;;;;3.29;63.63;97585.84;6103961;29;20475;-69
2022/09/28 10:47:24;;;;;;;4.00;1.83;;;;;;;3.18;64.37;97583.50;6104597;29;20070;-69
2022/09/28 10:50:28;;;;;;;2.42;1.75;;;;;;;3.09;64.93;97579.38;6104546;29;20127;-69
2022/09/28 10:53:29;;;;;;;1.35;0.80;;;;;;;3.18;65.20;97593.06;6103925;29;20052;-69
2022/09/28 10:56:39;;;;;;;1.15;0.90;;;;;;;3.23;65.33;97594.66;6104444;29;20176;-69
2022/09/28 10:59:41;;;;;;;2.28;1.35;;;;;;;3.13;65.15;97556.75;6104328;29;20055;-69
2022/09/28 11:02:45;;;;;;;4.85;2.83;;;;;;;3.26;65.09;97578.13;6103529;29;20143;-69
2022/09/28 11:06:04;;;;;;;1.92;1.20;;;;;;;3.14;65.76;97582.72;6104241;29;20422;-69
2022/09/28 11:09:29;;;;;;;0.98;0.82;;;;;;;3.15;65.79;97581.81;6103747;29;20155;-69
2022/09/28 11:12:44;;;;;;;0.70;0.70;;;;;;;2.87;66.56;97589.41;6103765;29;20140;-69
2022/09/28 11:15:45;;;;;;;2.78;1.50;;;;;;;2.84;67.12;97593.81;6103935;29;20146;-69
2022/09/28 11:18:50;;;;;;;2.15;1.80;;;;;;;2.86;67.12;97597.22;6103665;29;20040;-68
2022/09/28 11:21:54;;;;;;;1.73;0.80;;;;;;;2.91;67.12;97590.19;6103479;29;20098;-68
2022/09/28 11:25:17;;;;;;;1.02;0.73;;;;;;;2.96;67.43;97588.34;6103733;29;20072;-69
2022/09/28 11:28:26;;;;;;;0.73;0.73;;;;;;;2.99;67.42;97603.00;6103327;29;20044;-69
2022/09/28 11:31:30;;;;;;;1.58;1.10;;;;;;;2.99;67.27;97593.47;6103159;29;20044;-69
2022/09/28 11:34:43;;;;;;;1.73;1.23;;;;;;;2.94;67.69;97600.50;6102977;29;20047;-69
2022/09/28 11:38:02;;;;;;;1.10;1.00;;;;;;;2.81;67.90;97605.16;6103180;29;20048;-70
2022/09/28 11:41:14;;;;;;;15.65;6.70;;;;;;;2.73;67.99;97598.41;6103498;29;20596;-70
2022/09/28 11:44:30;;;;;;;1.92;0.90;;;;;;;2.69;67.93;97595.03;6103026;29;20446;-70
2022/09/28 11:47:44;;;;;;;0.90;0.75;;;;;;;2.60;68.37;97596.06;6102869;29;20056;-70
2022/09/28 11:50:51;;;;;;;;;;;;;;;2.59;68.05;97594.34;6103146;29;20103;-69
2022/09/28 11:54:01;;;;;;;0.60;0.40;;;;;;;2.58;68.72;97584.88;6102559;29;19923;-69
2022/09/28 11:57:11;;;;;;;0.73;0.60;;;;;;;2.58;68.58;97590.06;6103036;29;20143;-69
2022/09/28 12:00:17;;;;;;;1.05;0.60;;;;;;;2.53;68.70;97584.09;6103000;29;20060;-70
2022/09/28 12:03:28;;;;;;;1.00;0.95;;;;;;;2.53;69.09;97591.91;6102968;29;20040;-70
2022/09/28 12:06:39;;;;;;;0.93;0.80;;;;;;;2.62;68.75;97589.09;6102764;29;20044;-70
2022/09/28 12:10:12;;;;;;;1.10;0.95;;;;;;;2.63;68.72;97601.22;6102251;29;20454;-69
2022/09/28 12:13:21;;;;;;;1.35;0.93;;;;;;;2.62;68.58;97588.25;6098609;29;20048;-69
2022/09/28 12:16:30;;;;;;;1.13;0.93;;;;;;;2.48;68.98;97596.31;6102429;29;20070;-69
2022/09/28 12:19:48;;;;;;;3.47;1.38;;;;;;;2.41;69.35;97595.63;6102439;29;20506;-69
2022/09/28 12:22:58;;;;;;;1.20;1.00;;;;;;;2.44;69.42;97584.31;6102496;29;20044;-69
2022/09/28 12:26:19;;;;;;;3.15;1.25;;;;;;;2.40;69.21;97588.69;6102430;29;20142;-70
2022/09/28 12:29:32;;;;;;;1.42;1.25;;;;;;;2.36;69.83;97581.00;6102090;29;20044;-69
2022/09/28 12:32:41;;;;;;;1.10;0.90;;;;;;;2.34;69.83;97593.16;6101892;29;20577;-70
2022/09/28 12:35:57;;;;;;;1.50;1.40;;;;;;;2.36;69.81;97596.59;6102236;29;20140;-69
2022/09/28 12:39:09;;;;;;;7.22;4.47;;;;;;;2.31;70.01;97585.44;6101821;29;20052;-68
2022/09/28 12:42:31;;;;;;;3.03;2.00;;;;;;;2.28;70.08;97582.91;6101922;29;20139;-69
2022/09/28 12:45:42;;;;;;;2.53;1.52;;;;;;;2.31;70.34;97582.84;6101730;29;20040;-69
2022/09/28 12:49:13;;;;;;;2.22;1.20;;;;;;;2.31;70.65;97581.09;6101881;29;20044;-69
2022/09/28 12:52:46;;;;;;;0.90;0.75;;;;;;;2.30;70.62;97588.94;6101411;29;20465;-68
2022/09/28 12:56:08;;;;;;;0.40;0.40;;;;;;;2.25;70.71;97589.88;6101557;29;20109;-69
2022/09/28 13:00:03;;;;;;;0.52;0.52;;;;;;;2.24;70.61;97585.56;6101463;29;20054;-69
2022/09/28 13:03:08;;;;;;;0.75;0.75;;;;;;;2.20;70.83;97586.50;6082273;29;20510;-69
2022/09/28 13:06:21;;;;;;;6.78;3.85;;;;;;;2.25;70.43;97589.88;6101567;29;20043;-69
2022/09/28 13:09:32;;;;;;;9.50;4.57;;;;;;;2.23;70.45;97586.44;6101637;29;20088;-70
2022/09/28 13:12:51;;;;;;;2.72;1.98;;;;;;;2.30;70.61;97592.38;6100431;29;20518;-70
2022/09/28 13:16:17;;;;;;;2.10;1.10;;;;;;;2.17;70.70;97591.75;6101218;29;20380;-69
2022/09/28 13:19:42;;;;;;;2.30;0.90;;;;;;;2.03;71.25;97593.78;6101320;29;20426;-70
2022/09/28 13:22:50;;;;;;;3.88;2.05;;;;;;;1.99;71.47;97602.50;6101236;29;20063;-69
2022/09/28 13:26:02;;;;;;;2.63;1.10;;;;;;;2.01;71.53;97590.38;6101105;29;20093;-68
2022/09/28 13:29:16;;;;;;;1.00;0.80;;;;;;;2.02;71.89;97597.25;6101343;29;20040;-69
2022/09/28 13:32:18;;;;;;;1.00;0.70;;;;;;;1.99;71.96;97599.91;6100891;29;20056;-70
2022/09/28 13:35:23;;;;;;;0.98;0.73;;;;;;;2.04;71.61;97605.88;6101352;29;20187;-69
2022/09/28 13:38:29;;;;;;;1.00;0.70;;;;;;;2.01;72.09;97600.75;6101094;29;20408;-68
2022/09/28 13:41:39;;;;;;;3.35;1.00;;;;;;;1.94;72.13;97604.34;6100938;29;20036;-69
2022/09/28 13:45:15;;;;;;;2.25;1.35;;;;;;;1.99;72.42;97610.31;6101136;29;20051;-70
2022/09/28 13:48:20;;;;;;;1.48;0.93;;;;;;;1.89;72.21;97616.53;6101338;29;20535;-69
2022/09/28 13:51:47;;;;;;;1.98;1.55;;;;;;;1.81;72.52;97611.47;6100971;29;20052;-69
2022/09/28 13:54:56;;;;;;;4.13;2.22;;;;;;;1.79;72.91;97616.72;6101180;29;20569;-69
2022/09/28 13:58:13;;;;;;;3.05;2.00;;;;;;;1.83;72.56;97616.66;6101357;29;20409;-69
2022/09/28 14:01:38;;;;;;;2.45;1.70;;;;;;;1.93;72.58;97632.03;6100452;29;20040;-68
2022/09/28 14:05:02;;;;;;;4.00;2.30;;;;;;;1.87;72.77;97623.50;6101104;29;20176;-68
2022/09/28 14:08:07;;;;;;;3.08;2.00;;;;;;;1.77;72.95;97622.81;6101155;29;20074;-69
2022/09/28 14:11:35;;;;;;;1.52;1.42;;;;;;;1.70;73.16;97622.06;6100796;29;20056;-69
2022/09/28 14:14:53;;;;;;;2.88;1.50;;;;;;;1.71;73.45;97617.75;6096751;29;20135;-70
2022/09/28 14:18:23;;;;;;;2.30;1.65;;;;;;;1.78;73.50;97624.50;6105010;29;20127;-69
2022/09/28 14:22:03;;;;;;;1.45;0.95;;;;;;;1.82;73.21;97625.34;6104999;29;20432;-69
2022/09/28 14:25:25;;;;;;;0.95;0.80;;;;;;;1.86;73.50;97626.97;6104903;29;20064;-70
2022/09/28 14:28:55;;;;;;;1.52;1.20;;;;;;;1.84;73.71;97627.03;6103655;29;20510;-69
2022/09/28 14:32:23;;;;;;;2.60;1.67;;;;;;;1.68;74.21;97618.66;6104450;29;20511;-70
2022/09/28 14:35:39;;;;;;;3.25;1.77;;;;;;;1.69;73.96;97625.53;6082812;29;20059;-69
2022/09/28 14:42:16;;;;;;;3.42;1.20;;;;;;;1.77;74.10;97628.84;6103995;29;20080;-68
2022/09/28 14:45:19;;;;;;;1.85;1.38;;;;;;;1.74;74.21;97638.44;6104119;29;20089;-68
2022/09/28 14:48:43;;;;;;;2.38;1.25;;;;;;;1.71;74.70;97638.50;6104442;29;20048;-68
2022/09/28 14:51:54;;;;;;;1.10;1.00;;;;;;;1.71;74.37;97638.50;6104534;29;20048;-69
2022/09/28 14:54:56;;;;;;;1.48;1.27;;;;;;;1.72;74.73;97641.03;6104220;29;20448;-68
2022/09/28 14:57:58;;;;;;;1.52;1.08;;;;;;;1.63;74.46;97636.03;6103748;29;20044;-68
2022/09/28 15:01:15;;;;;;;1.40;1.00;;;;;;;1.66;74.47;97641.16;6103772;29;20055;-69
2022/09/28 15:04:17;;;;;;;1.83;1.23;;;;;;;1.62;74.68;97634.31;6103751;29;20055;-70
2022/09/28 15:07:40;;;;;;;;;;;;;;;1.67;74.46;97642.88;6104464;29;20130;-68
2022/09/28 15:10:49;;;;;;;1.27;0.95;;;;;;;1.65;74.69;97638.59;6104024;29;19987;-70
2022/09/28 15:14:07;;;;;;;2.80;1.30;;;;;;;1.60;74.50;97637.81;6102791;29;20511;-68